createdAt,value
2023-02-15T00:00:19.278Z,15.23
2023-02-15T00:02:47.926Z,12.93
2023-02-15T00:05:16.582Z,14.00
2023-02-15T00:07:45.098Z,15.07
2023-02-15T00:10:13.577Z,15.53
2023-02-15T00:12:41.995Z,15.00
2023-02-15T00:15:13.609Z,16.57
2023-02-15T00:17:42.013Z,15.53
2023-02-15T00:20:11.930Z,15.87
2023-02-15T00:22:40.546Z,16.03
2023-02-15T00:25:09.297Z,14.30
2023-02-15T00:27:37.756Z,14.93
2023-02-15T00:30:07.786Z,16.33
2023-02-15T00:32:37.643Z,15.73
2023-02-15T00:35:07.837Z,16.77
2023-02-15T00:37:36.204Z,14.90
2023-02-15T00:40:05.157Z,14.07
2023-02-15T00:42:33.642Z,17.13
2023-02-15T00:45:02.064Z,15.67
2023-02-15T00:47:30.466Z,14.50
2023-02-15T00:50:00.225Z,15.10
2023-02-15T00:52:28.883Z,16.13
2023-02-15T00:54:57.327Z,15.20
2023-02-15T00:57:25.767Z,14.37
2023-02-15T00:59:54.245Z,15.10
2023-02-15T01:02:22.677Z,16.97
2023-02-15T01:04:51.078Z,16.47
2023-02-15T01:07:20.830Z,15.30
2023-02-15T01:09:49.296Z,17.70
2023-02-15T01:12:17.881Z,13.97
2023-02-15T01:14:46.283Z,14.73
2023-02-15T01:17:14.725Z,16.07
2023-02-15T01:19:43.166Z,15.63
2023-02-15T01:22:11.671Z,16.40
2023-02-15T01:24:41.481Z,14.40
2023-02-15T01:27:09.917Z,16.03
2023-02-15T01:29:38.331Z,14.10
2023-02-15T01:32:06.843Z,15.13
2023-02-15T01:34:35.540Z,13.67
2023-02-15T01:37:04.067Z,13.33
2023-02-15T01:39:32.563Z,13.30
2023-02-15T01:42:02.405Z,14.37
2023-02-15T01:44:49.490Z,14.77
2023-02-15T01:47:20.476Z,13.83
2023-02-15T01:49:49.873Z,14.63
2023-02-15T01:52:20.213Z,14.90
2023-02-15T01:54:49.488Z,14.07
2023-02-15T01:57:21.853Z,14.60
2023-02-15T01:59:54.708Z,13.90
2023-02-15T02:02:25.275Z,12.80
2023-02-15T02:04:56.567Z,12.33
2023-02-15T02:07:28.715Z,12.17
2023-02-15T02:09:57.247Z,13.27
2023-02-15T02:12:27.602Z,12.87
2023-02-15T02:14:56.777Z,13.57
2023-02-15T02:17:34.688Z,13.20
2023-02-15T02:20:20.823Z,14.10
2023-02-15T02:23:21.246Z,15.43
2023-02-15T02:26:08.580Z,13.30
2023-02-15T02:29:11.529Z,14.13
2023-02-15T02:32:10.278Z,11.93
2023-02-15T02:34:44.904Z,13.50
2023-02-15T02:37:20.822Z,13.93
2023-02-15T02:39:53.668Z,13.17
2023-02-15T02:42:27.904Z,13.97
2023-02-15T02:44:59.243Z,13.37
2023-02-15T02:47:33.192Z,13.47
2023-02-15T02:50:05.644Z,13.53
2023-02-15T02:52:40.305Z,12.43
2023-02-15T02:55:12.032Z,15.57
2023-02-15T02:57:44.427Z,12.90
2023-02-15T03:00:16.653Z,13.03
2023-02-15T03:02:47.247Z,12.80
2023-02-15T03:05:20.664Z,12.57
2023-02-15T03:07:51.263Z,13.00
2023-02-15T03:10:23.541Z,13.30
2023-02-15T03:12:52.349Z,14.23
2023-02-15T03:15:23.192Z,12.20
2023-02-15T03:17:55.805Z,13.87
2023-02-15T03:20:28.892Z,14.13
2023-02-15T03:23:00.511Z,13.13
2023-02-15T03:25:32.746Z,12.97
2023-02-15T03:28:04.567Z,17.00
2023-02-15T03:30:33.708Z,17.93
2023-02-15T03:33:02.600Z,18.17
2023-02-15T03:35:36.192Z,17.70
2023-02-15T03:38:06.120Z,17.40
2023-02-15T03:40:54.635Z,18.50
2023-02-15T03:43:27.355Z,19.80
2023-02-15T03:45:59.759Z,19.93
2023-02-15T03:48:31.108Z,19.20
2023-02-15T03:51:22.056Z,19.40
2023-02-15T03:53:51.658Z,21.10
2023-02-15T03:56:20.091Z,20.03
2023-02-15T03:59:06.079Z,18.50
2023-02-15T04:01:54.680Z,19.33
2023-02-15T04:04:25.698Z,19.83
2023-02-15T04:06:55.538Z,21.23
2023-02-15T04:09:41.381Z,22.17
2023-02-15T04:12:10.132Z,21.00
2023-02-15T04:14:55.963Z,20.60
2023-02-15T04:17:24.487Z,18.27
2023-02-15T04:20:10.763Z,19.37
2023-02-15T04:22:57.944Z,20.30
2023-02-15T04:25:26.549Z,19.90
2023-02-15T04:27:56.155Z,18.33
2023-02-15T04:30:26.340Z,18.27
2023-02-15T04:32:55.885Z,19.73
2023-02-15T04:35:24.400Z,18.83
2023-02-15T04:37:54.201Z,20.07
2023-02-15T04:40:22.627Z,19.20
2023-02-15T04:42:51.140Z,19.40
2023-02-15T04:45:19.808Z,19.83
2023-02-15T04:47:48.222Z,21.13
2023-02-15T04:50:16.725Z,21.20
2023-02-15T04:52:45.228Z,21.37
2023-02-15T04:55:15.348Z,22.00
2023-02-15T04:57:43.848Z,23.53
2023-02-15T05:00:13.092Z,22.30
2023-02-15T05:02:41.469Z,17.93
2023-02-15T05:05:13.930Z,16.87
2023-02-15T05:07:42.483Z,19.93
2023-02-15T05:10:11.490Z,18.33
2023-02-15T05:12:41.351Z,19.27
2023-02-15T05:15:10.809Z,17.87
2023-02-15T05:17:39.137Z,19.87
2023-02-15T05:20:08.530Z,19.90
2023-02-15T05:22:36.948Z,18.33
2023-02-15T05:25:22.878Z,18.97
2023-02-15T05:28:10.151Z,18.90
2023-02-15T05:30:40.687Z,20.47
2023-02-15T05:33:09.313Z,21.37
2023-02-15T05:35:37.950Z,20.13
2023-02-15T05:38:06.504Z,20.63
2023-02-15T05:40:35.019Z,18.60
2023-02-15T05:43:04.887Z,20.93
2023-02-15T05:45:33.358Z,20.30
2023-02-15T05:48:01.764Z,22.83
2023-02-15T05:50:30.272Z,22.60
2023-02-15T05:52:58.705Z,23.30
2023-02-15T05:55:27.100Z,19.57
2023-02-15T05:57:55.518Z,18.60
2023-02-15T06:00:26.316Z,18.23
2023-02-15T06:02:54.974Z,18.07
2023-02-15T06:05:23.466Z,17.37
2023-02-15T06:07:51.916Z,20.87
2023-02-15T06:10:20.479Z,21.33
2023-02-15T06:12:48.900Z,22.67
2023-02-15T06:15:17.463Z,19.43
2023-02-15T06:17:47.345Z,19.13
2023-02-15T06:20:15.802Z,19.87
2023-02-15T06:22:44.336Z,19.00
2023-02-15T06:25:12.900Z,19.63
2023-02-15T06:27:43.947Z,18.73
2023-02-15T06:30:13.887Z,20.13
2023-02-15T06:32:42.585Z,19.63
2023-02-15T06:35:12.571Z,16.97
2023-02-15T06:37:41.067Z,16.43
2023-02-15T06:40:10.830Z,22.42
2023-02-15T06:42:39.305Z,18.17
2023-02-15T06:45:08.637Z,18.03
2023-02-15T06:47:37.350Z,20.03
2023-02-15T06:50:07.235Z,18.57
2023-02-15T06:52:37.143Z,18.20
2023-02-15T06:55:06.008Z,18.93
2023-02-15T06:57:34.606Z,17.77
2023-02-15T07:00:03.296Z,18.87
2023-02-15T07:02:32.249Z,18.77
2023-02-15T07:05:00.728Z,20.20
2023-02-15T07:07:29.309Z,21.87
2023-02-15T07:09:59.122Z,20.10
2023-02-15T07:12:45.532Z,31.63
2023-02-15T07:15:16.200Z,21.90
2023-02-15T07:17:45.228Z,21.03
2023-02-15T07:20:16.361Z,20.67
2023-02-15T07:22:44.973Z,23.60
2023-02-15T07:25:15.414Z,20.20
2023-02-15T07:27:44.763Z,20.70
2023-02-15T07:30:15.140Z,20.57
2023-02-15T07:32:57.701Z,20.63
2023-02-15T07:35:26.244Z,21.60
2023-02-15T07:37:54.851Z,22.67
2023-02-15T07:40:25.263Z,19.37
2023-02-15T07:42:55.762Z,18.93
2023-02-15T07:45:24.556Z,22.93
2023-02-15T07:47:53.031Z,22.07
2023-02-15T07:50:21.453Z,19.60
2023-02-15T07:52:49.957Z,23.47
2023-02-15T07:55:19.506Z,21.50
2023-02-15T07:57:51.798Z,23.20
2023-02-15T08:00:24.411Z,22.83
2023-02-15T08:03:14.164Z,22.13
2023-02-15T08:05:44.397Z,22.40
2023-02-15T08:08:30.634Z,20.50
2023-02-15T08:11:21.348Z,20.93
2023-02-15T08:13:55.700Z,21.33
2023-02-15T08:16:32.321Z,21.43
2023-02-15T08:19:02.796Z,21.20
2023-02-15T08:21:31.984Z,22.47
2023-02-15T08:24:00.955Z,19.67
2023-02-15T08:26:30.148Z,20.97
2023-02-15T08:29:00.788Z,20.27
2023-02-15T08:31:29.929Z,23.07
2023-02-15T08:33:59.171Z,23.53
2023-02-15T08:36:29.711Z,22.27
2023-02-15T08:39:00.230Z,20.60
2023-02-15T08:41:31.259Z,21.93
2023-02-15T08:44:02.785Z,28.40
2023-02-15T08:46:32.377Z,24.60
2023-02-15T08:49:01.479Z,19.90
2023-02-15T08:51:31.458Z,18.93
2023-02-15T08:54:01.137Z,18.73
2023-02-15T08:56:32.779Z,20.63
2023-02-15T08:59:03.168Z,20.33
2023-02-15T09:01:33.890Z,20.97
2023-02-15T09:04:05.156Z,21.50
2023-02-15T09:06:33.784Z,21.77
2023-02-15T09:09:02.490Z,24.90
2023-02-15T09:11:32.078Z,21.80
2023-02-15T09:14:03.492Z,22.47
2023-02-15T09:16:33.525Z,40.63
2023-02-15T09:19:02.962Z,23.63
2023-02-15T09:21:31.468Z,26.07
2023-02-15T09:24:02.031Z,20.73
2023-02-15T09:26:31.675Z,21.77
2023-02-15T09:29:02.468Z,22.13
2023-02-15T09:31:33.458Z,22.40
2023-02-15T09:34:02.904Z,20.27
2023-02-15T09:36:33.364Z,22.20
2023-02-15T09:39:05.147Z,21.87
2023-02-15T09:41:47.220Z,27.87
2023-02-15T09:44:21.996Z,27.83
2023-02-15T09:47:02.000Z,21.47
2023-02-15T09:49:36.517Z,21.80
2023-02-15T09:52:30.585Z,21.37
2023-02-15T09:55:11.781Z,23.43
2023-02-15T09:57:49.278Z,25.37
2023-02-15T10:00:26.609Z,22.17
2023-02-15T10:03:09.943Z,22.33
2023-02-15T10:05:45.929Z,23.33
2023-02-15T10:08:53.879Z,20.77
2023-02-15T10:11:42.649Z,21.03
2023-02-15T10:14:30.219Z,22.63
2023-02-15T10:17:04.391Z,25.07
2023-02-15T10:19:40.520Z,22.40
2023-02-15T10:22:23.184Z,25.20
2023-02-15T10:25:13.050Z,73.50
2023-02-15T10:27:48.250Z,43.83
2023-02-15T10:30:18.019Z,26.53
2023-02-15T10:32:56.202Z,21.67
2023-02-15T10:35:29.998Z,29.17
2023-02-15T10:38:08.590Z,20.93
2023-02-15T10:40:45.132Z,29.00
2023-02-15T10:43:26.050Z,26.07
2023-02-15T10:46:01.281Z,21.47
2023-02-15T10:48:54.429Z,19.77
2023-02-15T10:51:31.641Z,18.43
2023-02-15T10:54:23.475Z,21.30
2023-02-15T10:56:59.560Z,21.47
2023-02-15T10:59:42.903Z,18.83
2023-02-15T11:02:19.652Z,24.97
2023-02-15T11:04:53.418Z,24.93
2023-02-15T11:07:26.445Z,23.07
2023-02-15T11:10:18.407Z,15.70
2023-02-15T11:12:48.096Z,21.00
2023-02-15T11:15:20.661Z,19.30
2023-02-15T11:17:53.381Z,17.93
2023-02-15T11:20:26.825Z,23.73
2023-02-15T11:22:57.896Z,19.70
2023-02-15T11:25:31.128Z,19.00
2023-02-15T11:27:59.517Z,20.53
2023-02-15T11:30:31.409Z,19.37
2023-02-15T11:33:02.934Z,19.73
2023-02-15T11:35:34.438Z,23.90
2023-02-15T11:38:09.612Z,18.53
2023-02-15T11:40:40.956Z,18.23
2023-02-15T11:43:15.214Z,17.93
2023-02-15T11:45:44.905Z,19.23
2023-02-15T11:48:16.143Z,18.80
2023-02-15T11:50:45.701Z,19.20
2023-02-15T11:53:17.420Z,17.70
2023-02-15T11:55:46.868Z,18.57
2023-02-15T11:58:25.263Z,16.93
2023-02-15T12:00:58.693Z,18.17
2023-02-15T12:03:31.911Z,18.83
2023-02-15T12:06:04.047Z,20.33
2023-02-15T12:08:39.771Z,20.03
2023-02-15T12:11:13.341Z,18.83
2023-02-15T12:13:56.536Z,20.73
2023-02-15T12:16:25.154Z,19.33
2023-02-15T12:18:55.140Z,18.70
2023-02-15T12:21:29.648Z,18.47
2023-02-15T12:24:04.826Z,18.80
2023-02-15T12:26:35.296Z,21.50
2023-02-15T12:29:09.671Z,18.50
2023-02-15T12:31:41.271Z,17.60
2023-02-15T12:34:13.807Z,17.93
2023-02-15T12:36:46.731Z,19.17
2023-02-15T12:39:26.643Z,19.23
2023-02-15T12:42:07.655Z,31.17
2023-02-15T12:44:38.731Z,25.27
2023-02-15T12:47:11.719Z,19.93
2023-02-15T12:49:40.477Z,24.13
2023-02-15T12:52:25.876Z,18.73
2023-02-15T12:54:55.677Z,18.70
2023-02-15T12:57:30.022Z,18.23
2023-02-15T12:59:59.775Z,18.40
2023-02-15T13:02:31.151Z,20.37
2023-02-15T13:05:05.698Z,22.20
2023-02-15T13:07:34.223Z,19.40
2023-02-15T13:10:04.146Z,20.90
2023-02-15T13:12:35.126Z,18.33
2023-02-15T13:15:05.658Z,17.17
2023-02-15T13:17:35.710Z,21.30
2023-02-15T13:20:08.372Z,18.50
2023-02-15T13:22:43.190Z,20.93
2023-02-15T13:25:21.240Z,22.60
2023-02-15T13:27:53.814Z,21.17
2023-02-15T13:30:28.089Z,22.50
2023-02-15T13:32:59.908Z,23.60
2023-02-15T13:35:31.403Z,23.67
2023-02-15T13:38:23.113Z,34.00
2023-02-15T13:40:55.873Z,24.43
2023-02-15T13:43:39.626Z,21.57
2023-02-15T13:46:24.187Z,23.43
2023-02-15T13:49:01.222Z,26.63
2023-02-15T13:51:37.392Z,24.40
2023-02-15T13:54:23.862Z,24.63
2023-02-15T13:57:02.877Z,25.03
2023-02-15T13:59:42.797Z,24.73
2023-02-15T14:02:39.997Z,24.23
2023-02-15T14:05:17.655Z,25.97
2023-02-15T14:07:55.657Z,26.30
2023-02-15T14:10:39.135Z,26.47
2023-02-15T14:14:07.702Z,23.90
2023-02-15T14:16:46.493Z,25.40
2023-02-15T14:19:26.995Z,24.33
2023-02-15T14:22:00.153Z,23.57
2023-02-15T14:24:35.721Z,22.50
2023-02-15T14:27:12.170Z,25.40
2023-02-15T14:29:50.592Z,23.73
2023-02-15T14:32:24.590Z,24.07
2023-02-15T14:34:55.301Z,25.47
2023-02-15T14:37:31.997Z,26.93
2023-02-15T14:40:22.717Z,24.57
2023-02-15T14:42:55.811Z,25.87
2023-02-15T14:45:33.268Z,29.87
2023-02-15T14:48:10.536Z,29.30
2023-02-15T14:50:46.889Z,26.97
2023-02-15T14:53:34.355Z,24.83
2023-02-15T14:56:22.361Z,25.47
2023-02-15T14:59:21.013Z,25.87
2023-02-15T15:02:00.344Z,27.97
2023-02-15T15:04:32.371Z,25.77
2023-02-15T15:07:04.784Z,28.40
2023-02-15T15:09:34.196Z,27.50
2023-02-15T15:12:30.756Z,27.67
2023-02-15T15:14:59.188Z,24.87
2023-02-15T15:17:58.205Z,26.10
2023-02-15T15:20:47.899Z,27.27
2023-02-15T15:23:42.637Z,29.67
2023-02-15T15:26:28.558Z,32.00
2023-02-15T15:28:59.175Z,33.13
2023-02-15T15:31:49.356Z,35.03
2023-02-15T15:34:47.909Z,30.60
2023-02-15T15:37:47.212Z,30.77
2023-02-15T15:40:51.571Z,29.87
2023-02-15T15:44:17.439Z,32.80
2023-02-15T15:46:59.707Z,35.50
2023-02-15T15:49:33.015Z,32.80
2023-02-15T15:52:03.423Z,28.97
2023-02-15T15:54:32.709Z,34.53
2023-02-15T15:57:04.443Z,32.87
2023-02-15T15:59:34.894Z,29.60
2023-02-15T16:02:09.546Z,33.97
2023-02-15T16:04:39.530Z,30.57
2023-02-15T16:07:27.616Z,31.73
2023-02-15T16:09:57.469Z,35.23
2023-02-15T16:12:27.496Z,38.80
2023-02-15T16:14:57.443Z,36.03
2023-02-15T16:17:27.444Z,38.77
2023-02-15T16:20:02.692Z,38.30
2023-02-15T16:22:32.162Z,38.63
2023-02-15T16:25:30.459Z,37.10
2023-02-15T16:27:58.970Z,35.43
2023-02-15T16:30:29.991Z,38.80
2023-02-15T16:33:06.947Z,36.97
2023-02-15T16:35:37.716Z,35.90
2023-02-15T16:38:06.785Z,36.27
2023-02-15T16:40:48.682Z,34.53
2023-02-15T16:43:20.826Z,34.47
2023-02-15T16:45:49.704Z,31.43
2023-02-15T16:48:22.790Z,30.93
2023-02-15T16:50:55.076Z,27.93
2023-02-15T16:53:27.496Z,29.80
2023-02-15T16:55:58.014Z,31.07
2023-02-15T16:58:31.104Z,36.80
2023-02-15T17:01:01.329Z,70.10
2023-02-15T17:03:30.253Z,45.00
2023-02-15T17:06:01.003Z,30.17
2023-02-15T17:08:31.999Z,31.07
2023-02-15T17:11:16.211Z,32.87
2023-02-15T17:14:15.336Z,34.20
2023-02-15T17:16:49.989Z,33.50
2023-02-15T17:19:21.760Z,32.80
2023-02-15T17:21:53.824Z,33.83
2023-02-15T17:24:27.899Z,29.47
2023-02-15T17:27:00.925Z,28.37
2023-02-15T17:29:36.238Z,29.27
2023-02-15T17:32:05.948Z,30.83
2023-02-15T17:35:04.274Z,33.30
2023-02-15T17:37:45.061Z,43.37
2023-02-15T17:40:22.532Z,46.63
2023-02-15T17:42:51.020Z,44.63
2023-02-15T17:45:20.056Z,36.63
2023-02-15T17:47:49.732Z,35.60
2023-02-15T17:50:22.533Z,33.70
2023-02-15T17:52:53.146Z,35.23
2023-02-15T17:55:43.585Z,37.70
2023-02-15T17:58:14.015Z,40.50
2023-02-15T18:01:03.593Z,39.00
2023-02-15T18:03:58.265Z,46.93
2023-02-15T18:06:44.932Z,39.50
2023-02-15T18:09:34.608Z,38.33
2023-02-15T18:12:03.528Z,36.60
2023-02-15T18:14:32.803Z,41.30
2023-02-15T18:17:01.365Z,35.87
2023-02-15T18:19:29.989Z,36.63
2023-02-15T18:21:58.518Z,45.60
2023-02-15T18:24:28.437Z,56.43
2023-02-15T18:26:57.000Z,53.77
2023-02-15T18:29:25.472Z,47.60
2023-02-15T18:31:55.556Z,45.30
2023-02-15T18:34:26.914Z,61.33
2023-02-15T18:36:55.647Z,67.80
2023-02-15T18:39:38.135Z,56.50
2023-02-15T18:42:07.161Z,51.63
2023-02-15T18:44:35.637Z,48.70
2023-02-15T18:47:04.320Z,48.13
2023-02-15T18:49:32.857Z,45.70
2023-02-15T18:52:01.501Z,51.17
2023-02-15T18:54:30.320Z,54.60
2023-02-15T18:57:02.540Z,47.33
2023-02-15T18:59:32.513Z,40.93
2023-02-15T19:02:01.385Z,64.10
2023-02-15T19:04:29.966Z,58.67
2023-02-15T19:06:58.570Z,59.87
2023-02-15T19:09:27.907Z,51.33
2023-02-15T19:11:59.830Z,47.50
2023-02-15T19:14:30.163Z,43.93
2023-02-15T19:16:59.851Z,38.07
2023-02-15T19:19:28.983Z,47.93
2023-02-15T19:21:57.934Z,45.80
2023-02-15T19:24:33.900Z,44.80
2023-02-15T19:27:03.961Z,45.10
2023-02-15T19:29:32.815Z,50.07
2023-02-15T19:32:01.344Z,47.57
2023-02-15T19:34:30.070Z,54.83
2023-02-15T19:36:58.566Z,45.80
2023-02-15T19:39:29.599Z,49.23
2023-02-15T19:41:58.074Z,50.70
2023-02-15T19:44:28.340Z,41.57
2023-02-15T19:46:56.799Z,35.90
2023-02-15T19:49:25.339Z,32.90
2023-02-15T19:51:54.073Z,37.27
2023-02-15T19:54:29.401Z,40.40
2023-02-15T19:56:57.832Z,55.30
2023-02-15T19:59:29.793Z,46.53
2023-02-15T20:01:58.755Z,42.43
2023-02-15T20:04:27.831Z,58.10
2023-02-15T20:06:58.190Z,43.60
2023-02-15T20:09:31.297Z,42.30
2023-02-15T20:11:59.817Z,47.70
2023-02-15T20:14:29.754Z,43.67
2023-02-15T20:16:58.176Z,48.67
2023-02-15T20:19:26.687Z,48.17
2023-02-15T20:21:56.481Z,37.13
2023-02-15T20:24:32.840Z,34.53
2023-02-15T20:27:01.441Z,28.60
2023-02-15T20:29:31.289Z,27.60
2023-02-15T20:32:01.419Z,27.37
2023-02-15T20:34:30.153Z,30.30
2023-02-15T20:36:58.982Z,27.27
2023-02-15T20:39:27.684Z,27.53
2023-02-15T20:41:56.107Z,28.23
2023-02-15T20:44:26.702Z,41.13
2023-02-15T20:46:58.162Z,57.00
2023-02-15T20:49:28.121Z,56.10
2023-02-15T20:51:58.384Z,45.20
2023-02-15T20:54:30.275Z,46.43
2023-02-15T20:56:59.237Z,37.17
2023-02-15T20:59:30.574Z,39.27
2023-02-15T21:02:02.988Z,35.37
2023-02-15T21:04:33.750Z,40.93
2023-02-15T21:07:02.457Z,45.03
2023-02-15T21:09:30.902Z,45.40
2023-02-15T21:12:02.266Z,45.33
2023-02-15T21:14:30.898Z,37.90
2023-02-15T21:17:00.956Z,34.13
2023-02-15T21:19:29.422Z,39.50
2023-02-15T21:21:59.730Z,37.07
2023-02-15T21:24:29.588Z,31.33
2023-02-15T21:27:01.543Z,28.47
2023-02-15T21:29:31.456Z,28.70
2023-02-15T21:32:02.450Z,25.43
2023-02-15T21:34:31.268Z,27.30
2023-02-15T21:37:00.570Z,31.43
2023-02-15T21:39:30.981Z,26.53
2023-02-15T21:42:16.829Z,31.17
2023-02-15T21:45:02.502Z,28.63
2023-02-15T21:47:50.290Z,26.73
2023-02-15T21:50:37.686Z,29.63
2023-02-15T21:53:07.355Z,30.53
2023-02-15T21:55:35.785Z,27.10
2023-02-15T21:58:04.522Z,28.67
2023-02-15T22:00:33.862Z,14.00
2023-02-15T22:03:03.660Z,17.70
2023-02-15T22:05:34.370Z,22.57
2023-02-15T22:08:02.797Z,25.73
2023-02-15T22:10:32.511Z,24.17
2023-02-15T22:13:03.881Z,21.93
2023-02-15T22:15:35.948Z,21.80
2023-02-15T22:18:06.741Z,23.43
2023-02-15T22:20:35.225Z,25.97
2023-02-15T22:23:03.667Z,23.20
2023-02-15T22:25:32.183Z,24.77
2023-02-15T22:28:00.814Z,26.57
2023-02-15T22:30:30.843Z,25.37
2023-02-15T22:33:00.118Z,25.10
2023-02-15T22:35:31.459Z,26.90
2023-02-15T22:38:00.540Z,24.93
2023-02-15T22:40:31.406Z,26.27
2023-02-15T22:43:02.257Z,23.60
2023-02-15T22:45:30.849Z,24.13
2023-02-15T22:48:01.196Z,21.27
2023-02-15T22:50:32.421Z,22.93
2023-02-15T22:53:01.763Z,23.07
2023-02-15T22:55:33.739Z,21.10
2023-02-15T22:58:02.323Z,23.07
2023-02-15T23:00:34.007Z,24.40
2023-02-15T23:03:02.763Z,22.63
2023-02-15T23:05:32.859Z,23.43
2023-02-15T23:08:01.360Z,21.33
2023-02-15T23:10:30.536Z,33.80
2023-02-15T23:13:17.897Z,35.47
2023-02-15T23:15:49.791Z,29.40
2023-02-15T23:18:21.103Z,27.13
2023-02-15T23:20:52.833Z,25.47
2023-02-15T23:23:27.496Z,25.30
2023-02-15T23:25:56.000Z,22.17
2023-02-15T23:28:30.504Z,23.80
2023-02-15T23:31:00.198Z,22.03
2023-02-15T23:33:31.633Z,22.60
2023-02-15T23:36:01.499Z,23.10
2023-02-15T23:38:31.419Z,21.30
2023-02-15T23:41:21.124Z,23.73
2023-02-15T23:43:53.044Z,21.63
2023-02-15T23:46:27.785Z,23.10
2023-02-15T23:48:57.058Z,20.83
2023-02-15T23:51:30.800Z,21.97
2023-02-15T23:53:59.704Z,23.07
2023-02-15T23:56:28.220Z,20.70
2023-02-15T23:58:56.652Z,23.40
